Shahrekord, Iran
Current Conditions -  °F | °C
As of 11:00 PM on Friday 24 Oct 2014 (Local Time) from OIFS Reporting Station
Clear Clear  
Wind Chill: 36°   Ceiling: Unl
Heat Index: 39°   Visibility: 6mi
Dew Point: 21°   Wind: 5mph
Humidity: 49%   Direction: 120°ESE
Pressure: 30.21"   Gusts: NA
Location:  32.33°N, 50.86°E
Report Text: OIFS 242000Z 12004KT CAVOK 04/M06 Q1023
Loading
Personal Weather Stations






























Interactive Weather Map
Tropical Storm Tracking
New forecast layout! Learn more

10-Day Weather Forecast

Advertisements
Track Severe Weather on mobile